Hauptseite
METAR-TAF:

METAR-TAF

Flughäfen :

Fliegerhorst Hinterstoisser

Zeltweg, Österreich

Breite: 47-12N, Länge: 014-45E, Höhe: 677 m

Beobachtung

Neuester Wetterbericht von vor 29 Minuten, um 03:50 UTC
Windstille
Temperatur -9°C
Luftfeuchtigkeit 92%
Luftdruck 1017 hPa

METAR: LOXZ 210350Z 00000KT 10KM OVC060SC M09/M10 Q1017

Zeit: 05:19 (04:19 UTC)

Prognose

Neuester Wetterbericht von vor 17 Stunden und 4 Minuten, um 11:15 UTC
Gültige Prognose vom 20 um 12 UTC bis 20 um 21 UTC
Wind 3 kt aus unterschiedlichen Richtungen
Sichtweite 10 km oder mehr
Aufgelockert bewölkt in der Höhe von 20000 ft
Wahrscheinlichkeit 30% :
Zeitweise
vom 20 um 20 UTC bis 20 um 21 UTC
Sichtweite: 0800 m

TAF: LOXZ 201115Z 2012/2021 VRB03KT 9999 SCT200 PROB30 TEMPO 2020/2021 0800 FZBCFG

Wetterbeobachtungen und Prognosen von mehr als 4000 Flughäfen (METAR und TAF Bericht).

Die verfügbaren Stationen werden durch gelbe und rote Markierungen auf der Karte dargestellt.

Führen Sie die Maus auf sie, um den Namen der Station zu sehen.

Darauf klicken, um die Beobachtung von Wetterbeobachtungen und Prognosen zu sehen.

Um die Karte zu ändern : klicken Sie auf den grünen Tasten mit einem schwarzen Kreuz Zum Vergrößern, auf den grünen Button mit einem Gedankenstrich zu verkleinern, oder auf die grünen Pfeile für benachbarte Karten.


METAR-TAF: